Tandag, Philippines
Current Conditions -  °F | °C
As of 12:00 PM on Sunday 26 Oct 2014 (Local Time) from RPMD Reporting Station
Broken Clouds Broken Clouds  
Wind Chill: 86°   Ceiling: 9000
Heat Index: 95°   Visibility: 4mi
Dew Point: 75°   Wind: 8mph
Humidity: 70%   Direction: 160°SSE
Pressure: 29.83"   Gusts: NA
Location:  9.08°N, 126.2°E
Report Text: RPMD 260400Z 16007KT 6000 FEW016 BKN090 30/24 Q1010 RMK A2983
Loading
Personal Weather Stations






























Interactive Weather Map
Tropical Storm Tracking
New forecast layout! Learn more

10-Day Weather Forecast

Advertisements
Track Severe Weather on mobile